sensor_id;sensor_type;location;lat;lon;timestamp;temperature;humidity
2929;DHT22;1474;51.460;7.150;2022-10-23T00:01:14;14.60;99.90
2929;DHT22;1474;51.460;7.150;2022-10-23T00:03:40;14.60;99.90
2929;DHT22;1474;51.460;7.150;2022-10-23T00:06:06;14.50;99.90
2929;DHT22;1474;51.460;7.150;2022-10-23T00:08:32;14.50;99.90
2929;DHT22;1474;51.460;7.150;2022-10-23T00:10:57;14.60;99.90
2929;DHT22;1474;51.460;7.150;2022-10-23T00:13:23;14.60;99.90
2929;DHT22;1474;51.460;7.150;2022-10-23T00:15:49;14.60;99.90
2929;DHT22;1474;51.460;7.150;2022-10-23T00:18:14;14.60;99.90
2929;DHT22;1474;51.460;7.150;2022-10-23T00:20:40;14.60;99.90
2929;DHT22;1474;51.460;7.150;2022-10-23T00:23:06;14.60;99.90
2929;DHT22;1474;51.460;7.150;2022-10-23T00:25:31;14.60;99.90
2929;DHT22;1474;51.460;7.150;2022-10-23T00:27:58;14.60;99.90
2929;DHT22;1474;51.460;7.150;2022-10-23T00:30:24;14.60;99.90
2929;DHT22;1474;51.460;7.150;2022-10-23T00:32:49;14.50;99.90
2929;DHT22;1474;51.460;7.150;2022-10-23T00:35:15;14.50;99.90
2929;DHT22;1474;51.460;7.150;2022-10-23T00:37:41;14.50;99.90
2929;DHT22;1474;51.460;7.150;2022-10-23T00:40:08;14.40;99.90
2929;DHT22;1474;51.460;7.150;2022-10-23T00:42:33;14.40;99.90
2929;DHT22;1474;51.460;7.150;2022-10-23T00:45:29;14.40;99.90
2929;DHT22;1474;51.460;7.150;2022-10-23T00:48:00;14.30;99.90
2929;DHT22;1474;51.460;7.150;2022-10-23T00:50:28;14.30;99.90
2929;DHT22;1474;51.460;7.150;2022-10-23T00:52:56;14.30;99.90
2929;DHT22;1474;51.460;7.150;2022-10-23T00:55:23;14.20;99.90
2929;DHT22;1474;51.460;7.150;2022-10-23T00:57:50;14.20;99.90
2929;DHT22;1474;51.460;7.150;2022-10-23T01:00:21;14.20;99.90
2929;DHT22;1474;51.460;7.150;2022-10-23T01:02:47;14.20;99.90
2929;DHT22;1474;51.460;7.150;2022-10-23T01:05:13;14.20;99.90
2929;DHT22;1474;51.460;7.150;2022-10-23T01:08:28;14.10;99.90
2929;DHT22;1474;51.460;7.150;2022-10-23T01:11:23;14.10;99.90
2929;DHT22;1474;51.460;7.150;2022-10-23T01:14:11;14.10;99.90
2929;DHT22;1474;51.460;7.150;2022-10-23T01:16:52;14.10;99.90
2929;DHT22;1474;51.460;7.150;2022-10-23T01:19:35;14.10;99.90
2929;DHT22;1474;51.460;7.150;2022-10-23T01:24:59;14.10;99.90
2929;DHT22;1474;51.460;7.150;2022-10-23T01:27:33;14.10;99.90
2929;DHT22;1474;51.460;7.150;2022-10-23T01:30:03;14.10;99.90
2929;DHT22;1474;51.460;7.150;2022-10-23T01:32:48;14.10;99.90
2929;DHT22;1474;51.460;7.150;2022-10-23T01:35:24;14.10;99.90
2929;DHT22;1474;51.460;7.150;2022-10-23T01:38:14;14.10;99.90
2929;DHT22;1474;51.460;7.150;2022-10-23T01:43:47;14.10;99.90
2929;DHT22;1474;51.460;7.150;2022-10-23T01:46:17;14.10;99.90
2929;DHT22;1474;51.460;7.150;2022-10-23T01:48:49;14.10;99.90
2929;DHT22;1474;51.460;7.150;2022-10-23T01:51:16;14.10;99.90
2929;DHT22;1474;51.460;7.150;2022-10-23T01:53:45;14.10;99.90
2929;DHT22;1474;51.460;7.150;2022-10-23T01:56:16;14.20;99.90
2929;DHT22;1474;51.460;7.150;2022-10-23T01:58:45;14.10;99.90
2929;DHT22;1474;51.460;7.150;2022-10-23T02:01:12;14.20;99.90
2929;DHT22;1474;51.460;7.150;2022-10-23T02:03:40;14.10;99.90
2929;DHT22;1474;51.460;7.150;2022-10-23T02:06:06;14.10;99.90
2929;DHT22;1474;51.460;7.150;2022-10-23T02:08:32;14.10;99.90
2929;DHT22;1474;51.460;7.150;2022-10-23T02:11:06;14.10;99.90
2929;DHT22;1474;51.460;7.150;2022-10-23T02:16:40;14.10;99.90
2929;DHT22;1474;51.460;7.150;2022-10-23T02:22:11;14.10;99.90
2929;DHT22;1474;51.460;7.150;2022-10-23T02:24:44;14.10;99.90
2929;DHT22;1474;51.460;7.150;2022-10-23T02:27:14;14.20;99.90
2929;DHT22;1474;51.460;7.150;2022-10-23T02:30:03;14.20;99.90
2929;DHT22;1474;51.460;7.150;2022-10-23T02:32:29;14.30;99.90
2929;DHT22;1474;51.460;7.150;2022-10-23T02:34:55;14.30;99.90
2929;DHT22;1474;51.460;7.150;2022-10-23T02:37:21;14.20;99.90
2929;DHT22;1474;51.460;7.150;2022-10-23T02:39:47;14.20;99.90
2929;DHT22;1474;51.460;7.150;2022-10-23T02:42:28;14.20;99.90
2929;DHT22;1474;51.460;7.150;2022-10-23T02:45:23;14.30;99.90
2929;DHT22;1474;51.460;7.150;2022-10-23T02:48:12;14.20;99.90
2929;DHT22;1474;51.460;7.150;2022-10-23T02:51:13;14.30;99.90
2929;DHT22;1474;51.460;7.150;2022-10-23T03:01:18;14.20;99.90
2929;DHT22;1474;51.460;7.150;2022-10-23T03:03:51;14.20;99.90
2929;DHT22;1474;51.460;7.150;2022-10-23T03:06:18;14.20;99.90
2929;DHT22;1474;51.460;7.150;2022-10-23T03:08:51;14.20;99.90
2929;DHT22;1474;51.460;7.150;2022-10-23T03:11:17;14.30;99.90
2929;DHT22;1474;51.460;7.150;2022-10-23T03:13:42;14.20;99.90
2929;DHT22;1474;51.460;7.150;2022-10-23T03:16:08;14.20;99.90
2929;DHT22;1474;51.460;7.150;2022-10-23T03:18:34;14.20;99.90
2929;DHT22;1474;51.460;7.150;2022-10-23T03:21:00;14.20;99.90
2929;DHT22;1474;51.460;7.150;2022-10-23T03:23:26;14.20;99.90
2929;DHT22;1474;51.460;7.150;2022-10-23T03:25:52;14.30;99.90
2929;DHT22;1474;51.460;7.150;2022-10-23T03:28:18;14.20;99.90
2929;DHT22;1474;51.460;7.150;2022-10-23T03:30:44;14.30;99.90
2929;DHT22;1474;51.460;7.150;2022-10-23T03:33:09;14.20;99.90
2929;DHT22;1474;51.460;7.150;2022-10-23T03:35:35;14.30;99.90
2929;DHT22;1474;51.460;7.150;2022-10-23T03:38:01;14.30;99.90
2929;DHT22;1474;51.460;7.150;2022-10-23T03:40:26;14.40;99.90
2929;DHT22;1474;51.460;7.150;2022-10-23T03:42:52;14.30;99.90
2929;DHT22;1474;51.460;7.150;2022-10-23T03:45:18;14.30;99.90
2929;DHT22;1474;51.460;7.150;2022-10-23T03:47:44;14.30;99.90
2929;DHT22;1474;51.460;7.150;2022-10-23T03:50:10;14.30;99.90
2929;DHT22;1474;51.460;7.150;2022-10-23T03:52:36;14.30;99.90
2929;DHT22;1474;51.460;7.150;2022-10-23T03:55:02;14.30;99.90
2929;DHT22;1474;51.460;7.150;2022-10-23T03:57:28;14.30;99.90
2929;DHT22;1474;51.460;7.150;2022-10-23T03:59:54;14.30;99.90
2929;DHT22;1474;51.460;7.150;2022-10-23T04:02:20;14.30;99.90
2929;DHT22;1474;51.460;7.150;2022-10-23T04:04:45;14.40;99.90
2929;DHT22;1474;51.460;7.150;2022-10-23T04:07:11;14.40;99.90
2929;DHT22;1474;51.460;7.150;2022-10-23T04:09:36;14.40;99.90
2929;DHT22;1474;51.460;7.150;2022-10-23T04:12:02;14.40;99.90
2929;DHT22;1474;51.460;7.150;2022-10-23T04:14:28;14.50;99.90
2929;DHT22;1474;51.460;7.150;2022-10-23T04:16:53;14.50;99.90
2929;DHT22;1474;51.460;7.150;2022-10-23T04:19:19;14.60;99.90
2929;DHT22;1474;51.460;7.150;2022-10-23T04:21:44;14.60;99.90
2929;DHT22;1474;51.460;7.150;2022-10-23T04:24:10;14.60;99.90
2929;DHT22;1474;51.460;7.150;2022-10-23T04:26:36;14.60;99.90
2929;DHT22;1474;51.460;7.150;2022-10-23T04:29:01;14.60;99.90
2929;DHT22;1474;51.460;7.150;2022-10-23T04:31:27;14.60;99.90
2929;DHT22;1474;51.460;7.150;2022-10-23T04:33:52;14.70;99.90
2929;DHT22;1474;51.460;7.150;2022-10-23T04:36:18;14.70;99.90
2929;DHT22;1474;51.460;7.150;2022-10-23T04:38:44;14.70;99.90
2929;DHT22;1474;51.460;7.150;2022-10-23T04:41:09;14.70;99.90
2929;DHT22;1474;51.460;7.150;2022-10-23T04:43:35;14.80;99.90
2929;DHT22;1474;51.460;7.150;2022-10-23T04:46:01;14.80;99.90
2929;DHT22;1474;51.460;7.150;2022-10-23T04:48:27;14.80;99.90
2929;DHT22;1474;51.460;7.150;2022-10-23T04:51:00;14.80;99.90
2929;DHT22;1474;51.460;7.150;2022-10-23T04:53:27;14.80;99.90
2929;DHT22;1474;51.460;7.150;2022-10-23T04:55:55;14.80;99.90
2929;DHT22;1474;51.460;7.150;2022-10-23T04:58:21;14.80;99.90
2929;DHT22;1474;51.460;7.150;2022-10-23T05:00:48;14.80;99.90
2929;DHT22;1474;51.460;7.150;2022-10-23T05:03:15;14.80;99.90
2929;DHT22;1474;51.460;7.150;2022-10-23T05:05:41;14.70;99.90
2929;DHT22;1474;51.460;7.150;2022-10-23T05:08:07;14.70;99.90
2929;DHT22;1474;51.460;7.150;2022-10-23T05:10:32;14.70;99.90
2929;DHT22;1474;51.460;7.150;2022-10-23T05:12:58;14.80;99.90
2929;DHT22;1474;51.460;7.150;2022-10-23T05:15:24;14.80;99.90
2929;DHT22;1474;51.460;7.150;2022-10-23T05:17:53;14.80;99.90
2929;DHT22;1474;51.460;7.150;2022-10-23T05:20:23;14.80;99.90
2929;DHT22;1474;51.460;7.150;2022-10-23T05:22:50;14.80;99.90
2929;DHT22;1474;51.460;7.150;2022-10-23T05:25:17;14.80;99.90
2929;DHT22;1474;51.460;7.150;2022-10-23T05:27:43;14.80;99.90
2929;DHT22;1474;51.460;7.150;2022-10-23T05:30:09;14.80;99.90
2929;DHT22;1474;51.460;7.150;2022-10-23T05:32:36;14.80;99.90
2929;DHT22;1474;51.460;7.150;2022-10-23T05:35:06;14.80;99.90
2929;DHT22;1474;51.460;7.150;2022-10-23T05:37:33;14.80;99.90
2929;DHT22;1474;51.460;7.150;2022-10-23T05:39:58;14.80;99.90
2929;DHT22;1474;51.460;7.150;2022-10-23T05:42:24;14.80;99.90
2929;DHT22;1474;51.460;7.150;2022-10-23T05:44:50;14.80;99.90
2929;DHT22;1474;51.460;7.150;2022-10-23T05:47:15;14.80;99.90
2929;DHT22;1474;51.460;7.150;2022-10-23T05:49:41;14.80;99.90
2929;DHT22;1474;51.460;7.150;2022-10-23T05:52:10;14.80;99.90
2929;DHT22;1474;51.460;7.150;2022-10-23T05:54:35;14.80;99.90
2929;DHT22;1474;51.460;7.150;2022-10-23T05:57:01;14.80;99.90
2929;DHT22;1474;51.460;7.150;2022-10-23T05:59:27;14.80;99.90
2929;DHT22;1474;51.460;7.150;2022-10-23T06:01:52;14.90;99.90
2929;DHT22;1474;51.460;7.150;2022-10-23T06:04:21;14.90;99.90
2929;DHT22;1474;51.460;7.150;2022-10-23T06:06:46;14.90;99.90
2929;DHT22;1474;51.460;7.150;2022-10-23T06:09:13;14.90;99.90
2929;DHT22;1474;51.460;7.150;2022-10-23T06:11:39;14.90;99.90
2929;DHT22;1474;51.460;7.150;2022-10-23T06:14:06;14.90;99.90
2929;DHT22;1474;51.460;7.150;2022-10-23T06:16:31;14.90;99.90
2929;DHT22;1474;51.460;7.150;2022-10-23T06:18:57;14.90;99.90
2929;DHT22;1474;51.460;7.150;2022-10-23T06:21:23;14.90;99.90
2929;DHT22;1474;51.460;7.150;2022-10-23T06:23:49;14.90;99.90
2929;DHT22;1474;51.460;7.150;2022-10-23T06:26:16;14.90;99.90
2929;DHT22;1474;51.460;7.150;2022-10-23T06:28:42;14.90;99.90
2929;DHT22;1474;51.460;7.150;2022-10-23T06:31:10;15.00;99.90
2929;DHT22;1474;51.460;7.150;2022-10-23T06:33:36;15.00;99.90
2929;DHT22;1474;51.460;7.150;2022-10-23T06:36:03;15.00;99.90
2929;DHT22;1474;51.460;7.150;2022-10-23T06:38:30;15.00;99.90
2929;DHT22;1474;51.460;7.150;2022-10-23T06:41:01;15.10;99.90
2929;DHT22;1474;51.460;7.150;2022-10-23T06:43:26;15.10;99.90
2929;DHT22;1474;51.460;7.150;2022-10-23T06:45:52;15.10;99.90
2929;DHT22;1474;51.460;7.150;2022-10-23T06:48:18;15.20;99.90
2929;DHT22;1474;51.460;7.150;2022-10-23T06:50:43;15.20;99.90
2929;DHT22;1474;51.460;7.150;2022-10-23T06:53:09;15.20;99.90
2929;DHT22;1474;51.460;7.150;2022-10-23T06:55:37;15.20;99.90
2929;DHT22;1474;51.460;7.150;2022-10-23T06:58:07;15.30;99.90
2929;DHT22;1474;51.460;7.150;2022-10-23T07:00:36;15.30;99.90
2929;DHT22;1474;51.460;7.150;2022-10-23T07:03:03;15.40;99.90
2929;DHT22;1474;51.460;7.150;2022-10-23T07:05:29;15.40;99.90
2929;DHT22;1474;51.460;7.150;2022-10-23T07:07:55;15.40;99.90
2929;DHT22;1474;51.460;7.150;2022-10-23T07:10:20;15.40;99.90
2929;DHT22;1474;51.460;7.150;2022-10-23T07:12:46;15.40;99.90
2929;DHT22;1474;51.460;7.150;2022-10-23T07:15:13;15.40;99.90
2929;DHT22;1474;51.460;7.150;2022-10-23T07:17:39;15.50;99.90
2929;DHT22;1474;51.460;7.150;2022-10-23T07:20:05;15.50;99.90
2929;DHT22;1474;51.460;7.150;2022-10-23T07:22:31;15.50;99.90
2929;DHT22;1474;51.460;7.150;2022-10-23T07:24:57;15.50;99.90
2929;DHT22;1474;51.460;7.150;2022-10-23T07:27:23;15.50;99.90
2929;DHT22;1474;51.460;7.150;2022-10-23T07:29:50;15.50;99.90
2929;DHT22;1474;51.460;7.150;2022-10-23T07:32:16;15.60;99.90
2929;DHT22;1474;51.460;7.150;2022-10-23T07:34:41;15.60;99.90
2929;DHT22;1474;51.460;7.150;2022-10-23T07:37:07;15.60;99.90
2929;DHT22;1474;51.460;7.150;2022-10-23T07:39:33;15.60;99.90
2929;DHT22;1474;51.460;7.150;2022-10-23T07:41:58;15.70;99.90
2929;DHT22;1474;51.460;7.150;2022-10-23T07:44:24;15.70;99.90
2929;DHT22;1474;51.460;7.150;2022-10-23T07:46:50;15.70;99.90
2929;DHT22;1474;51.460;7.150;2022-10-23T07:49:15;15.70;99.90
2929;DHT22;1474;51.460;7.150;2022-10-23T07:51:41;15.80;99.90
2929;DHT22;1474;51.460;7.150;2022-10-23T07:54:11;15.80;99.90
2929;DHT22;1474;51.460;7.150;2022-10-23T07:56:37;15.70;99.90
2929;DHT22;1474;51.460;7.150;2022-10-23T07:59:03;15.80;99.90
2929;DHT22;1474;51.460;7.150;2022-10-23T08:01:38;15.80;99.90
2929;DHT22;1474;51.460;7.150;2022-10-23T08:04:05;15.80;99.90
2929;DHT22;1474;51.460;7.150;2022-10-23T08:06:31;15.90;99.90
2929;DHT22;1474;51.460;7.150;2022-10-23T08:09:00;15.90;99.90
2929;DHT22;1474;51.460;7.150;2022-10-23T08:11:25;16.00;99.90
2929;DHT22;1474;51.460;7.150;2022-10-23T08:13:55;16.10;99.90
2929;DHT22;1474;51.460;7.150;2022-10-23T08:16:21;16.20;99.90
2929;DHT22;1474;51.460;7.150;2022-10-23T08:18:47;16.20;99.90
2929;DHT22;1474;51.460;7.150;2022-10-23T08:21:14;16.30;99.90
2929;DHT22;1474;51.460;7.150;2022-10-23T08:23:40;16.30;99.90
2929;DHT22;1474;51.460;7.150;2022-10-23T08:26:06;16.40;99.90
2929;DHT22;1474;51.460;7.150;2022-10-23T08:28:32;16.50;99.90
2929;DHT22;1474;51.460;7.150;2022-10-23T08:30:58;16.50;99.90
2929;DHT22;1474;51.460;7.150;2022-10-23T08:33:26;16.60;99.90
2929;DHT22;1474;51.460;7.150;2022-10-23T08:35:52;16.60;99.90
2929;DHT22;1474;51.460;7.150;2022-10-23T08:38:17;16.70;99.90
2929;DHT22;1474;51.460;7.150;2022-10-23T08:40:47;16.80;99.90
2929;DHT22;1474;51.460;7.150;2022-10-23T08:43:20;16.80;99.90
2929;DHT22;1474;51.460;7.150;2022-10-23T08:45:59;16.90;99.90
2929;DHT22;1474;51.460;7.150;2022-10-23T08:48:38;17.00;99.90
2929;DHT22;1474;51.460;7.150;2022-10-23T08:51:26;17.10;99.90
2929;DHT22;1474;51.460;7.150;2022-10-23T08:53:58;17.30;99.90
2929;DHT22;1474;51.460;7.150;2022-10-23T08:56:27;17.30;99.90
2929;DHT22;1474;51.460;7.150;2022-10-23T08:59:12;17.50;99.90
2929;DHT22;1474;51.460;7.150;2022-10-23T09:01:58;17.60;99.90
2929;DHT22;1474;51.460;7.150;2022-10-23T09:04:25;17.70;99.90
2929;DHT22;1474;51.460;7.150;2022-10-23T09:07:08;17.80;99.90
2929;DHT22;1474;51.460;7.150;2022-10-23T09:10:10;17.90;99.90
2929;DHT22;1474;51.460;7.150;2022-10-23T09:12:38;17.90;99.90
2929;DHT22;1474;51.460;7.150;2022-10-23T09:17:46;17.90;99.90
2929;DHT22;1474;51.460;7.150;2022-10-23T09:22:59;18.00;99.90
2929;DHT22;1474;51.460;7.150;2022-10-23T09:25:28;18.00;99.90
2929;DHT22;1474;51.460;7.150;2022-10-23T09:28:00;18.00;99.90
2929;DHT22;1474;51.460;7.150;2022-10-23T09:33:11;18.00;99.90
2929;DHT22;1474;51.460;7.150;2022-10-23T09:35:38;18.00;99.90
2929;DHT22;1474;51.460;7.150;2022-10-23T09:38:46;18.00;99.90
2929;DHT22;1474;51.460;7.150;2022-10-23T09:41:19;18.10;99.90
2929;DHT22;1474;51.460;7.150;2022-10-23T09:43:45;18.10;99.90
2929;DHT22;1474;51.460;7.150;2022-10-23T09:46:11;18.10;99.90
2929;DHT22;1474;51.460;7.150;2022-10-23T09:48:38;18.10;99.90
2929;DHT22;1474;51.460;7.150;2022-10-23T09:51:17;18.00;99.90
2929;DHT22;1474;51.460;7.150;2022-10-23T09:53:52;18.10;99.90
2929;DHT22;1474;51.460;7.150;2022-10-23T09:56:25;18.10;99.90
2929;DHT22;1474;51.460;7.150;2022-10-23T10:02:15;18.10;99.90
2929;DHT22;1474;51.460;7.150;2022-10-23T10:04:45;18.10;99.90
2929;DHT22;1474;51.460;7.150;2022-10-23T10:07:18;18.20;99.90
2929;DHT22;1474;51.460;7.150;2022-10-23T10:09:44;18.20;99.90
2929;DHT22;1474;51.460;7.150;2022-10-23T10:25:51;18.60;99.90
2929;DHT22;1474;51.460;7.150;2022-10-23T10:31:40;18.70;99.90
2929;DHT22;1474;51.460;7.150;2022-10-23T10:37:18;18.80;99.90
2929;DHT22;1474;51.460;7.150;2022-10-23T10:40:40;18.80;99.90
2929;DHT22;1474;51.460;7.150;2022-10-23T10:43:10;18.90;99.90
2929;DHT22;1474;51.460;7.150;2022-10-23T10:45:38;18.80;99.90
2929;DHT22;1474;51.460;7.150;2022-10-23T10:51:04;18.70;99.90
2929;DHT22;1474;51.460;7.150;2022-10-23T10:56:18;18.70;99.90
2929;DHT22;1474;51.460;7.150;2022-10-23T11:01:23;18.80;99.90
2929;DHT22;1474;51.460;7.150;2022-10-23T11:06:34;18.90;99.90
2929;DHT22;1474;51.460;7.150;2022-10-23T11:09:14;19.00;99.90
2929;DHT22;1474;51.460;7.150;2022-10-23T11:11:40;19.00;99.90
2929;DHT22;1474;51.460;7.150;2022-10-23T11:14:16;18.90;99.90
2929;DHT22;1474;51.460;7.150;2022-10-23T11:16:47;19.00;99.90
2929;DHT22;1474;51.460;7.150;2022-10-23T11:19:27;19.00;99.90
2929;DHT22;1474;51.460;7.150;2022-10-23T11:22:05;19.00;99.90
2929;DHT22;1474;51.460;7.150;2022-10-23T11:35:41;19.30;99.90
2929;DHT22;1474;51.460;7.150;2022-10-23T11:38:17;19.40;99.90
2929;DHT22;1474;51.460;7.150;2022-10-23T11:40:46;19.50;99.90
2929;DHT22;1474;51.460;7.150;2022-10-23T11:46:31;19.60;99.90
2929;DHT22;1474;51.460;7.150;2022-10-23T11:48:57;19.60;99.90
2929;DHT22;1474;51.460;7.150;2022-10-23T11:51:35;19.60;99.90
2929;DHT22;1474;51.460;7.150;2022-10-23T11:59:52;19.80;99.90
2929;DHT22;1474;51.460;7.150;2022-10-23T12:05:06;19.90;99.90
2929;DHT22;1474;51.460;7.150;2022-10-23T12:07:35;19.90;99.90
2929;DHT22;1474;51.460;7.150;2022-10-23T12:10:19;19.80;99.90
2929;DHT22;1474;51.460;7.150;2022-10-23T12:13:01;19.80;99.90
2929;DHT22;1474;51.460;7.150;2022-10-23T12:15:29;19.80;99.90
2929;DHT22;1474;51.460;7.150;2022-10-23T12:18:15;19.80;99.90
2929;DHT22;1474;51.460;7.150;2022-10-23T12:20:47;19.90;99.90
2929;DHT22;1474;51.460;7.150;2022-10-23T12:23:44;19.90;99.90
2929;DHT22;1474;51.460;7.150;2022-10-23T12:26:19;19.90;99.90
2929;DHT22;1474;51.460;7.150;2022-10-23T12:31:50;20.00;99.90
2929;DHT22;1474;51.460;7.150;2022-10-23T12:37:48;20.20;99.90
2929;DHT22;1474;51.460;7.150;2022-10-23T12:40:18;20.20;99.90
2929;DHT22;1474;51.460;7.150;2022-10-23T12:42:53;20.30;99.90
2929;DHT22;1474;51.460;7.150;2022-10-23T12:45:32;20.30;99.90
2929;DHT22;1474;51.460;7.150;2022-10-23T12:47:59;20.40;99.90
2929;DHT22;1474;51.460;7.150;2022-10-23T12:50:28;20.40;99.90
2929;DHT22;1474;51.460;7.150;2022-10-23T12:53:00;20.50;99.90
2929;DHT22;1474;51.460;7.150;2022-10-23T12:55:33;20.50;99.90
2929;DHT22;1474;51.460;7.150;2022-10-23T12:58:19;20.60;99.90
2929;DHT22;1474;51.460;7.150;2022-10-23T13:00:53;20.50;99.90
2929;DHT22;1474;51.460;7.150;2022-10-23T13:03:20;20.60;99.90
2929;DHT22;1474;51.460;7.150;2022-10-23T13:05:49;20.50;99.90
2929;DHT22;1474;51.460;7.150;2022-10-23T13:08:16;20.60;99.90
2929;DHT22;1474;51.460;7.150;2022-10-23T13:10:46;20.60;99.90
2929;DHT22;1474;51.460;7.150;2022-10-23T13:13:21;20.70;99.90
2929;DHT22;1474;51.460;7.150;2022-10-23T13:15:51;20.70;99.90
2929;DHT22;1474;51.460;7.150;2022-10-23T13:18:17;20.80;99.90
2929;DHT22;1474;51.460;7.150;2022-10-23T13:23:34;20.80;99.90
2929;DHT22;1474;51.460;7.150;2022-10-23T13:26:03;20.80;99.90
2929;DHT22;1474;51.460;7.150;2022-10-23T13:28:43;20.80;99.90
2929;DHT22;1474;51.460;7.150;2022-10-23T13:33:36;20.80;99.90
2929;DHT22;1474;51.460;7.150;2022-10-23T13:36:20;20.70;99.90
2929;DHT22;1474;51.460;7.150;2022-10-23T13:38:59;20.70;99.90
2929;DHT22;1474;51.460;7.150;2022-10-23T13:41:27;20.60;99.90
2929;DHT22;1474;51.460;7.150;2022-10-23T13:43:53;20.60;99.90
2929;DHT22;1474;51.460;7.150;2022-10-23T13:46:20;20.50;99.90
2929;DHT22;1474;51.460;7.150;2022-10-23T13:48:47;20.50;99.90
2929;DHT22;1474;51.460;7.150;2022-10-23T13:51:19;20.50;99.90
2929;DHT22;1474;51.460;7.150;2022-10-23T13:53:45;20.40;99.90
2929;DHT22;1474;51.460;7.150;2022-10-23T13:56:13;20.30;99.90
2929;DHT22;1474;51.460;7.150;2022-10-23T13:58:42;20.20;99.90
2929;DHT22;1474;51.460;7.150;2022-10-23T14:01:34;20.30;99.90
2929;DHT22;1474;51.460;7.150;2022-10-23T14:04:00;20.30;99.90
2929;DHT22;1474;51.460;7.150;2022-10-23T14:06:28;20.30;99.90
2929;DHT22;1474;51.460;7.150;2022-10-23T14:08:54;20.30;99.90
2929;DHT22;1474;51.460;7.150;2022-10-23T14:11:20;20.20;99.90
2929;DHT22;1474;51.460;7.150;2022-10-23T14:13:47;20.20;99.90
2929;DHT22;1474;51.460;7.150;2022-10-23T14:16:15;20.20;99.90
2929;DHT22;1474;51.460;7.150;2022-10-23T14:18:41;20.20;99.90
2929;DHT22;1474;51.460;7.150;2022-10-23T14:21:09;20.10;99.90
2929;DHT22;1474;51.460;7.150;2022-10-23T14:23:35;20.10;99.90
2929;DHT22;1474;51.460;7.150;2022-10-23T14:26:06;20.10;99.90
2929;DHT22;1474;51.460;7.150;2022-10-23T14:28:32;20.10;99.90
2929;DHT22;1474;51.460;7.150;2022-10-23T14:31:03;20.00;99.90
2929;DHT22;1474;51.460;7.150;2022-10-23T14:33:29;20.10;99.90
2929;DHT22;1474;51.460;7.150;2022-10-23T14:35:54;20.10;99.90
2929;DHT22;1474;51.460;7.150;2022-10-23T14:38:20;20.00;99.90
2929;DHT22;1474;51.460;7.150;2022-10-23T14:40:46;19.90;99.90
2929;DHT22;1474;51.460;7.150;2022-10-23T14:43:11;20.00;99.90
2929;DHT22;1474;51.460;7.150;2022-10-23T14:45:37;19.90;99.90
2929;DHT22;1474;51.460;7.150;2022-10-23T14:48:03;19.80;99.90
2929;DHT22;1474;51.460;7.150;2022-10-23T14:50:30;19.90;99.90
2929;DHT22;1474;51.460;7.150;2022-10-23T14:52:56;19.80;99.90
2929;DHT22;1474;51.460;7.150;2022-10-23T14:55:22;19.80;99.90
2929;DHT22;1474;51.460;7.150;2022-10-23T14:57:48;19.80;99.90
2929;DHT22;1474;51.460;7.150;2022-10-23T15:00:33;19.80;99.90
2929;DHT22;1474;51.460;7.150;2022-10-23T15:02:59;19.80;99.90
2929;DHT22;1474;51.460;7.150;2022-10-23T15:05:25;19.70;99.90
2929;DHT22;1474;51.460;7.150;2022-10-23T15:07:54;19.70;99.90
2929;DHT22;1474;51.460;7.150;2022-10-23T15:10:44;19.60;99.90
2929;DHT22;1474;51.460;7.150;2022-10-23T15:13:16;19.50;99.90
2929;DHT22;1474;51.460;7.150;2022-10-23T15:15:47;19.50;99.90
2929;DHT22;1474;51.460;7.150;2022-10-23T15:18:13;19.40;99.90
2929;DHT22;1474;51.460;7.150;2022-10-23T15:20:39;19.50;99.90
2929;DHT22;1474;51.460;7.150;2022-10-23T15:23:04;19.40;99.90
2929;DHT22;1474;51.460;7.150;2022-10-23T15:25:30;19.50;99.90
2929;DHT22;1474;51.460;7.150;2022-10-23T15:27:56;19.40;99.90
2929;DHT22;1474;51.460;7.150;2022-10-23T15:30:21;19.40;99.90
2929;DHT22;1474;51.460;7.150;2022-10-23T15:32:47;19.40;99.90
2929;DHT22;1474;51.460;7.150;2022-10-23T15:35:13;19.30;99.90
2929;DHT22;1474;51.460;7.150;2022-10-23T15:37:38;19.30;99.90
2929;DHT22;1474;51.460;7.150;2022-10-23T15:40:04;19.20;99.90
2929;DHT22;1474;51.460;7.150;2022-10-23T15:42:30;19.10;99.90
2929;DHT22;1474;51.460;7.150;2022-10-23T15:44:56;18.90;99.90
2929;DHT22;1474;51.460;7.150;2022-10-23T15:47:21;18.80;99.90
2929;DHT22;1474;51.460;7.150;2022-10-23T15:49:47;18.70;99.90
2929;DHT22;1474;51.460;7.150;2022-10-23T15:52:13;18.60;99.90
2929;DHT22;1474;51.460;7.150;2022-10-23T15:54:38;18.60;99.90
2929;DHT22;1474;51.460;7.150;2022-10-23T15:57:04;18.50;99.90
2929;DHT22;1474;51.460;7.150;2022-10-23T15:59:30;18.30;99.90
2929;DHT22;1474;51.460;7.150;2022-10-23T16:01:56;18.30;99.90
2929;DHT22;1474;51.460;7.150;2022-10-23T16:04:22;18.30;99.90
2929;DHT22;1474;51.460;7.150;2022-10-23T16:06:48;18.30;99.90
2929;DHT22;1474;51.460;7.150;2022-10-23T16:09:14;18.20;99.90
2929;DHT22;1474;51.460;7.150;2022-10-23T16:11:41;18.20;99.90
2929;DHT22;1474;51.460;7.150;2022-10-23T16:14:09;18.00;99.90
2929;DHT22;1474;51.460;7.150;2022-10-23T16:16:35;18.00;99.90
2929;DHT22;1474;51.460;7.150;2022-10-23T16:19:02;18.00;99.90
2929;DHT22;1474;51.460;7.150;2022-10-23T16:21:32;17.90;99.90
2929;DHT22;1474;51.460;7.150;2022-10-23T16:23:59;18.00;99.90
2929;DHT22;1474;51.460;7.150;2022-10-23T16:26:26;18.00;99.90
2929;DHT22;1474;51.460;7.150;2022-10-23T16:28:56;18.00;99.90
2929;DHT22;1474;51.460;7.150;2022-10-23T16:31:23;18.00;99.90
2929;DHT22;1474;51.460;7.150;2022-10-23T16:33:50;17.90;99.90
2929;DHT22;1474;51.460;7.150;2022-10-23T16:36:16;17.90;99.90
2929;DHT22;1474;51.460;7.150;2022-10-23T16:38:42;17.70;99.90
2929;DHT22;1474;51.460;7.150;2022-10-23T16:41:07;17.70;99.90
2929;DHT22;1474;51.460;7.150;2022-10-23T16:43:33;17.60;99.90
2929;DHT22;1474;51.460;7.150;2022-10-23T16:46:19;17.50;99.90
2929;DHT22;1474;51.460;7.150;2022-10-23T16:48:47;17.40;99.90
2929;DHT22;1474;51.460;7.150;2022-10-23T16:51:17;17.40;99.90
2929;DHT22;1474;51.460;7.150;2022-10-23T16:53:44;17.30;99.90
2929;DHT22;1474;51.460;7.150;2022-10-23T16:56:11;17.30;99.90
2929;DHT22;1474;51.460;7.150;2022-10-23T16:58:37;17.30;99.90
2929;DHT22;1474;51.460;7.150;2022-10-23T17:01:19;17.30;99.90
2929;DHT22;1474;51.460;7.150;2022-10-23T17:03:48;17.30;99.90
2929;DHT22;1474;51.460;7.150;2022-10-23T17:06:17;17.30;99.90
2929;DHT22;1474;51.460;7.150;2022-10-23T17:08:43;17.20;99.90
2929;DHT22;1474;51.460;7.150;2022-10-23T17:11:20;17.20;99.90
2929;DHT22;1474;51.460;7.150;2022-10-23T17:13:55;17.10;99.90
2929;DHT22;1474;51.460;7.150;2022-10-23T17:16:24;17.20;99.90
2929;DHT22;1474;51.460;7.150;2022-10-23T17:18:50;17.10;99.90
2929;DHT22;1474;51.460;7.150;2022-10-23T17:21:18;17.10;99.90
2929;DHT22;1474;51.460;7.150;2022-10-23T17:23:44;17.10;99.90
2929;DHT22;1474;51.460;7.150;2022-10-23T17:26:13;17.00;99.90
2929;DHT22;1474;51.460;7.150;2022-10-23T17:28:39;16.90;99.90
2929;DHT22;1474;51.460;7.150;2022-10-23T17:31:15;16.80;99.90
2929;DHT22;1474;51.460;7.150;2022-10-23T17:33:43;16.70;99.90
2929;DHT22;1474;51.460;7.150;2022-10-23T17:36:09;16.50;99.90
2929;DHT22;1474;51.460;7.150;2022-10-23T17:38:37;16.50;99.90
2929;DHT22;1474;51.460;7.150;2022-10-23T17:41:04;16.50;99.90
2929;DHT22;1474;51.460;7.150;2022-10-23T17:43:30;16.40;99.90
2929;DHT22;1474;51.460;7.150;2022-10-23T17:45:56;16.50;99.90
2929;DHT22;1474;51.460;7.150;2022-10-23T17:48:21;16.50;99.90
2929;DHT22;1474;51.460;7.150;2022-10-23T17:50:47;16.50;99.90
2929;DHT22;1474;51.460;7.150;2022-10-23T17:53:13;16.50;99.90